Saturday, November 18, 2017, 6:02 PM EST
Back to Local

KLEW, Auburn-lewiston

Location: Auburn, ME, United States Lat: 44.05
Local Time: 6:02 PM EST (23:02 GMT) Lon: -70.283
Time Zone: US/Eastern Elev: 288 ft

Show me the last for .
Show Decoded

2017-11-18 17:56 METAR KLEW 182256Z AUTO 00000KT 10SM BKN036 BKN055 OVC075 03/M02 A2972 RMK AO2
                 SLP079 T00281022 =
2017-11-18 16:56 METAR KLEW 182156Z AUTO 16004KT 10SM OVC100 03/M02 A2973 RMK AO2 SLP083
                 T00281022 =
2017-11-18 15:56 METAR KLEW 182056Z AUTO 14003KT 10SM OVC120 03/M02 A2974 RMK AO2 SLP089
                 T00281022 58022 =
2017-11-18 14:56 METAR KLEW 181956Z AUTO 17004KT 10SM FEW095 OVC120 03/M04 A2977 RMK AO2 SLP098
                 T00331039 =
2017-11-18 13:56 METAR KLEW 181856Z AUTO 17008KT 10SM FEW120 03/M09 A2978 RMK AO2 SLP102
                 T00331089 =
2017-11-18 12:56 METAR KLEW 181756Z AUTO 17006KT 10SM CLR 04/M13 A2981 RMK AO2 SLP112 T00391128
                 10044 21067 58036 =
2017-11-18 11:56 METAR KLEW 181656Z AUTO 14004KT 10SM CLR 04/M11 A2984 RMK AO2 SLP121 T00391111 =
2017-11-18 10:56 METAR KLEW 181556Z AUTO 22006KT 10SM CLR 03/M10 A2989 RMK AO2 SLP138 T00331100 =
2017-11-18 09:56 METAR KLEW 181456Z AUTO 00000KT 10SM CLR 01/M11 A2992 RMK AO2 SLP147 T00111111
                 58005 FZRANO =
2017-11-18 08:56 METAR KLEW 181356Z AUTO VRB05KT 10SM CLR M01/M08 A2993 RMK AO2 SLP150 T10061083
                 FZRANO =
2017-11-18 07:56 METAR KLEW 181256Z AUTO 02004KT 10SM CLR M03/M10 A2992 RMK AO2 SLP151 T10331100
                 FZRANO =
2017-11-18 06:56 METAR KLEW 181156Z AUTO 25003KT 10SM CLR M06/M11 A2993 RMK AO2 SLP152 T10561106
                 11028 21067 53001 FZRANO =
2017-11-18 05:56 METAR KLEW 181056Z AUTO 00000KT 10SM CLR M04/M11 A2993 RMK AO2 SLP152 T10441111
                 FZRANO =
2017-11-18 04:56 METAR KLEW 180956Z AUTO 27006KT 10SM CLR M04/M10 A2992 RMK AO2 SLP148 T10441100
                 FZRANO =
2017-11-18 03:56 METAR KLEW 180856Z AUTO 00000KT 10SM CLR M06/M10 A2993 RMK AO2 SLP151 T10561100
                 58006 FZRANO =
2017-11-18 02:56 METAR KLEW 180756Z AUTO 33004KT 10SM CLR M04/M10 A2994 RMK AO2 SLP155 T10441100
                 FZRANO =
2017-11-18 01:56 METAR KLEW 180656Z AUTO 00000KT 10SM CLR M03/M10 A2996 RMK AO2 SLP160 T10281100
                 FZRANO =
2017-11-18 00:56 METAR KLEW 180556Z AUTO 35006KT 10SM CLR M03/M10 A2995 RMK AO2 SLP157 T10331100
                 11022 21039 51005 FZRANO =
2017-11-17 23:56 METAR KLEW 180456Z AUTO 35003KT 10SM CLR M03/M09 A2994 RMK AO2 SLP155 T10331094
                 FZRANO =
2017-11-17 22:56 METAR KLEW 180356Z AUTO 30007KT 10SM CLR M03/M09 A2995 RMK AO2 SLP158 T10281089
                 400281033 FZRANO =
2017-11-17 21:56 METAR KLEW 180256Z AUTO 30006KT 10SM CLR M03/M09 A2993 RMK AO2 SLP152 T10281089
                 51009 FZRANO =
2017-11-17 20:56 METAR KLEW 180156Z AUTO 28008KT 10SM CLR M02/M09 A2993 RMK AO2 SLP150 T10221089
                 FZRANO =
2017-11-17 19:56 METAR KLEW 180056Z AUTO 32007KT 10SM CLR M02/M08 A2993 RMK AO2 SLP150 T10221083
                 FZRANO =
2017-11-17 18:56 METAR KLEW 172356Z AUTO 31010KT 10SM CLR M02/M08 A2991 RMK AO2 SLP143 T10221083
                 10022 21022 51021 FZRANO =

Support USWX by starting your Amazon purchase here.